sensor_id;sensor_type;location;lat;lon;timestamp;temperature;humidity
1405;DHT22;697;51.114;6.542;2023-04-03T00:00:05;5.50;94.80
1405;DHT22;697;51.114;6.542;2023-04-03T00:02:32;5.40;94.80
1405;DHT22;697;51.114;6.542;2023-04-03T00:05:00;5.40;94.80
1405;DHT22;697;51.114;6.542;2023-04-03T00:07:27;5.40;94.80
1405;DHT22;697;51.114;6.542;2023-04-03T00:09:54;5.30;94.90
1405;DHT22;697;51.114;6.542;2023-04-03T00:12:20;5.30;94.90
1405;DHT22;697;51.114;6.542;2023-04-03T00:14:47;5.30;94.80
1405;DHT22;697;51.114;6.542;2023-04-03T00:17:14;5.30;94.90
1405;DHT22;697;51.114;6.542;2023-04-03T00:19:40;5.30;94.90
1405;DHT22;697;51.114;6.542;2023-04-03T00:22:09;5.20;94.90
1405;DHT22;697;51.114;6.542;2023-04-03T00:24:35;5.20;95.00
1405;DHT22;697;51.114;6.542;2023-04-03T00:27:02;5.20;95.10
1405;DHT22;697;51.114;6.542;2023-04-03T00:29:29;5.20;95.20
1405;DHT22;697;51.114;6.542;2023-04-03T00:31:55;5.10;95.10
1405;DHT22;697;51.114;6.542;2023-04-03T00:34:22;5.10;95.20
1405;DHT22;697;51.114;6.542;2023-04-03T00:36:49;5.10;95.30
1405;DHT22;697;51.114;6.542;2023-04-03T00:39:18;5.10;95.30
1405;DHT22;697;51.114;6.542;2023-04-03T00:41:44;5.10;95.40
1405;DHT22;697;51.114;6.542;2023-04-03T00:44:21;5.10;95.60
1405;DHT22;697;51.114;6.542;2023-04-03T00:46:48;5.00;95.60
1405;DHT22;697;51.114;6.542;2023-04-03T00:49:15;5.00;95.70
1405;DHT22;697;51.114;6.542;2023-04-03T00:51:42;5.00;95.80
1405;DHT22;697;51.114;6.542;2023-04-03T00:54:09;5.00;95.80
1405;DHT22;697;51.114;6.542;2023-04-03T00:56:37;4.90;95.80
1405;DHT22;697;51.114;6.542;2023-04-03T00:59:08;4.90;95.90
1405;DHT22;697;51.114;6.542;2023-04-03T01:01:37;4.90;95.80
1405;DHT22;697;51.114;6.542;2023-04-03T01:04:05;4.90;95.90
1405;DHT22;697;51.114;6.542;2023-04-03T01:06:34;4.90;95.90
1405;DHT22;697;51.114;6.542;2023-04-03T01:09:01;4.80;95.90
1405;DHT22;697;51.114;6.542;2023-04-03T01:11:28;4.80;95.90
1405;DHT22;697;51.114;6.542;2023-04-03T01:13:56;4.80;95.90
1405;DHT22;697;51.114;6.542;2023-04-03T01:16:23;4.80;95.90
1405;DHT22;697;51.114;6.542;2023-04-03T01:18:49;4.70;95.90
1405;DHT22;697;51.114;6.542;2023-04-03T01:21:42;4.70;95.90
1405;DHT22;697;51.114;6.542;2023-04-03T01:24:28;4.70;96.10
1405;DHT22;697;51.114;6.542;2023-04-03T01:26:57;4.70;96.10
1405;DHT22;697;51.114;6.542;2023-04-03T01:29:25;4.70;96.10
1405;DHT22;697;51.114;6.542;2023-04-03T01:31:56;4.60;96.00
1405;DHT22;697;51.114;6.542;2023-04-03T01:34:24;4.60;96.00
1405;DHT22;697;51.114;6.542;2023-04-03T01:36:51;4.60;96.00
1405;DHT22;697;51.114;6.542;2023-04-03T01:39:18;4.60;96.00
1405;DHT22;697;51.114;6.542;2023-04-03T01:41:45;4.60;96.00
1405;DHT22;697;51.114;6.542;2023-04-03T01:44:12;4.60;96.00
1405;DHT22;697;51.114;6.542;2023-04-03T01:46:39;4.50;96.00
1405;DHT22;697;51.114;6.542;2023-04-03T01:49:09;4.50;96.10
1405;DHT22;697;51.114;6.542;2023-04-03T01:51:36;4.50;96.20
1405;DHT22;697;51.114;6.542;2023-04-03T01:54:03;4.50;96.30
1405;DHT22;697;51.114;6.542;2023-04-03T01:56:30;4.50;96.30
1405;DHT22;697;51.114;6.542;2023-04-03T01:58:56;4.40;96.30
1405;DHT22;697;51.114;6.542;2023-04-03T02:01:23;4.40;96.40
1405;DHT22;697;51.114;6.542;2023-04-03T02:03:51;4.40;96.40
1405;DHT22;697;51.114;6.542;2023-04-03T02:06:19;4.40;96.50
1405;DHT22;697;51.114;6.542;2023-04-03T02:08:46;4.40;96.50
1405;DHT22;697;51.114;6.542;2023-04-03T02:11:12;4.40;96.50
1405;DHT22;697;51.114;6.542;2023-04-03T02:13:39;4.40;96.50
1405;DHT22;697;51.114;6.542;2023-04-03T02:16:07;4.40;96.50
1405;DHT22;697;51.114;6.542;2023-04-03T02:18:35;4.30;96.50
1405;DHT22;697;51.114;6.542;2023-04-03T02:21:02;4.30;96.50
1405;DHT22;697;51.114;6.542;2023-04-03T02:23:30;4.30;96.60
1405;DHT22;697;51.114;6.542;2023-04-03T02:26:03;4.30;96.60
1405;DHT22;697;51.114;6.542;2023-04-03T02:28:30;4.20;96.60
1405;DHT22;697;51.114;6.542;2023-04-03T02:30:57;4.20;96.60
1405;DHT22;697;51.114;6.542;2023-04-03T02:33:24;4.20;96.70
1405;DHT22;697;51.114;6.542;2023-04-03T02:35:53;4.20;96.70
1405;DHT22;697;51.114;6.542;2023-04-03T02:38:19;4.20;96.80
1405;DHT22;697;51.114;6.542;2023-04-03T02:40:48;4.20;96.70
1405;DHT22;697;51.114;6.542;2023-04-03T02:43:14;4.20;96.60
1405;DHT22;697;51.114;6.542;2023-04-03T02:45:41;4.10;96.60
1405;DHT22;697;51.114;6.542;2023-04-03T02:48:08;4.10;96.70
1405;DHT22;697;51.114;6.542;2023-04-03T02:50:34;4.10;96.70
1405;DHT22;697;51.114;6.542;2023-04-03T02:53:01;4.10;96.80
1405;DHT22;697;51.114;6.542;2023-04-03T02:55:28;4.10;96.90
1405;DHT22;697;51.114;6.542;2023-04-03T02:57:56;4.10;97.10
1405;DHT22;697;51.114;6.542;2023-04-03T03:00:22;4.10;97.20
1405;DHT22;697;51.114;6.542;2023-04-03T03:02:49;4.10;97.20
1405;DHT22;697;51.114;6.542;2023-04-03T03:05:17;4.10;97.20
1405;DHT22;697;51.114;6.542;2023-04-03T03:07:44;4.10;97.50
1405;DHT22;697;51.114;6.542;2023-04-03T03:10:10;4.10;97.20
1405;DHT22;697;51.114;6.542;2023-04-03T03:12:37;4.10;97.30
1405;DHT22;697;51.114;6.542;2023-04-03T03:15:06;4.10;97.40
1405;DHT22;697;51.114;6.542;2023-04-03T03:17:33;4.00;97.40
1405;DHT22;697;51.114;6.542;2023-04-03T03:20:01;4.10;97.50
1405;DHT22;697;51.114;6.542;2023-04-03T03:22:28;4.10;97.60
1405;DHT22;697;51.114;6.542;2023-04-03T03:24:54;4.10;97.70
1405;DHT22;697;51.114;6.542;2023-04-03T03:27:21;4.10;97.80
1405;DHT22;697;51.114;6.542;2023-04-03T03:29:49;4.10;97.80
1405;DHT22;697;51.114;6.542;2023-04-03T03:32:17;4.10;97.90
1405;DHT22;697;51.114;6.542;2023-04-03T03:34:44;4.10;98.00
1405;DHT22;697;51.114;6.542;2023-04-03T03:37:10;4.10;98.10
1405;DHT22;697;51.114;6.542;2023-04-03T03:39:37;4.10;98.10
1405;DHT22;697;51.114;6.542;2023-04-03T03:42:04;4.10;98.20
1405;DHT22;697;51.114;6.542;2023-04-03T03:44:30;4.10;98.20
1405;DHT22;697;51.114;6.542;2023-04-03T03:46:57;4.10;98.20
1405;DHT22;697;51.114;6.542;2023-04-03T03:49:25;4.10;98.30
1405;DHT22;697;51.114;6.542;2023-04-03T03:51:52;4.10;98.30
1405;DHT22;697;51.114;6.542;2023-04-03T03:54:18;4.10;98.30
1405;DHT22;697;51.114;6.542;2023-04-03T03:56:45;4.10;98.40
1405;DHT22;697;51.114;6.542;2023-04-03T03:59:12;4.10;98.30
1405;DHT22;697;51.114;6.542;2023-04-03T04:01:39;4.00;98.30
1405;DHT22;697;51.114;6.542;2023-04-03T04:04:06;4.00;98.30
1405;DHT22;697;51.114;6.542;2023-04-03T04:06:34;4.00;98.40
1405;DHT22;697;51.114;6.542;2023-04-03T04:09:00;4.00;98.40
1405;DHT22;697;51.114;6.542;2023-04-03T04:11:27;4.00;98.40
1405;DHT22;697;51.114;6.542;2023-04-03T04:13:54;4.00;98.50
1405;DHT22;697;51.114;6.542;2023-04-03T04:16:20;4.00;98.50
1405;DHT22;697;51.114;6.542;2023-04-03T04:18:47;3.90;98.30
1405;DHT22;697;51.114;6.542;2023-04-03T04:21:14;3.90;98.20
1405;DHT22;697;51.114;6.542;2023-04-03T04:23:42;3.90;98.10
1405;DHT22;697;51.114;6.542;2023-04-03T04:26:08;3.90;98.10
1405;DHT22;697;51.114;6.542;2023-04-03T04:28:35;3.90;98.10
1405;DHT22;697;51.114;6.542;2023-04-03T04:31:02;3.90;98.10
1405;DHT22;697;51.114;6.542;2023-04-03T04:33:29;3.80;98.00
1405;DHT22;697;51.114;6.542;2023-04-03T04:35:56;3.80;97.90
1405;DHT22;697;51.114;6.542;2023-04-03T04:38:22;3.80;97.80
1405;DHT22;697;51.114;6.542;2023-04-03T04:40:50;3.70;97.80
1405;DHT22;697;51.114;6.542;2023-04-03T04:43:17;3.70;97.70
1405;DHT22;697;51.114;6.542;2023-04-03T04:45:44;3.70;97.60
1405;DHT22;697;51.114;6.542;2023-04-03T04:48:10;3.60;97.50
1405;DHT22;697;51.114;6.542;2023-04-03T04:50:37;3.60;97.50
1405;DHT22;697;51.114;6.542;2023-04-03T04:53:04;3.60;97.60
1405;DHT22;697;51.114;6.542;2023-04-03T04:55:31;3.50;97.50
1405;DHT22;697;51.114;6.542;2023-04-03T04:57:59;3.50;97.50
1405;DHT22;697;51.114;6.542;2023-04-03T05:00:26;3.50;97.60
1405;DHT22;697;51.114;6.542;2023-04-03T05:02:53;3.50;97.50
1405;DHT22;697;51.114;6.542;2023-04-03T05:05:19;3.40;97.50
1405;DHT22;697;51.114;6.542;2023-04-03T05:07:46;3.50;97.70
1405;DHT22;697;51.114;6.542;2023-04-03T05:10:13;3.50;97.70
1405;DHT22;697;51.114;6.542;2023-04-03T05:12:39;3.40;97.70
1405;DHT22;697;51.114;6.542;2023-04-03T05:15:09;3.40;98.10
1405;DHT22;697;51.114;6.542;2023-04-03T05:17:35;3.50;97.80
1405;DHT22;697;51.114;6.542;2023-04-03T05:20:03;3.40;97.70
1405;DHT22;697;51.114;6.542;2023-04-03T05:22:30;3.50;97.70
1405;DHT22;697;51.114;6.542;2023-04-03T05:24:57;3.40;97.80
1405;DHT22;697;51.114;6.542;2023-04-03T05:27:24;3.40;97.80
1405;DHT22;697;51.114;6.542;2023-04-03T05:29:53;3.40;97.80
1405;DHT22;697;51.114;6.542;2023-04-03T05:32:22;3.40;97.80
1405;DHT22;697;51.114;6.542;2023-04-03T05:34:49;3.50;97.90
1405;DHT22;697;51.114;6.542;2023-04-03T05:37:16;3.40;97.80
1405;DHT22;697;51.114;6.542;2023-04-03T05:39:43;3.50;97.90
1405;DHT22;697;51.114;6.542;2023-04-03T05:42:09;3.50;97.90
1405;DHT22;697;51.114;6.542;2023-04-03T05:44:36;3.50;97.90
1405;DHT22;697;51.114;6.542;2023-04-03T05:47:03;3.50;97.90
1405;DHT22;697;51.114;6.542;2023-04-03T05:49:31;3.40;97.90
1405;DHT22;697;51.114;6.542;2023-04-03T05:51:58;3.40;97.90
1405;DHT22;697;51.114;6.542;2023-04-03T05:54:27;3.50;98.10
1405;DHT22;697;51.114;6.542;2023-04-03T05:56:54;3.40;98.10
1405;DHT22;697;51.114;6.542;2023-04-03T05:59:21;3.40;98.10
1405;DHT22;697;51.114;6.542;2023-04-03T06:01:48;3.50;98.30
1405;DHT22;697;51.114;6.542;2023-04-03T06:04:15;3.50;98.50
1405;DHT22;697;51.114;6.542;2023-04-03T06:06:45;3.60;98.60
1405;DHT22;697;51.114;6.542;2023-04-03T06:09:12;3.60;98.60
1405;DHT22;697;51.114;6.542;2023-04-03T06:11:39;3.60;98.70
1405;DHT22;697;51.114;6.542;2023-04-03T06:14:07;3.70;98.80
1405;DHT22;697;51.114;6.542;2023-04-03T06:16:34;3.70;99.00
1405;DHT22;697;51.114;6.542;2023-04-03T06:19:01;3.80;99.20
1405;DHT22;697;51.114;6.542;2023-04-03T06:21:27;3.90;99.30
1405;DHT22;697;51.114;6.542;2023-04-03T06:23:56;3.90;99.40
1405;DHT22;697;51.114;6.542;2023-04-03T06:26:22;4.00;99.50
1405;DHT22;697;51.114;6.542;2023-04-03T06:28:49;4.00;99.50
1405;DHT22;697;51.114;6.542;2023-04-03T06:31:16;4.10;99.60
1405;DHT22;697;51.114;6.542;2023-04-03T06:33:42;4.10;99.60
1405;DHT22;697;51.114;6.542;2023-04-03T06:36:10;4.20;99.60
1405;DHT22;697;51.114;6.542;2023-04-03T06:38:38;4.20;99.60
1405;DHT22;697;51.114;6.542;2023-04-03T06:41:06;4.30;99.70
1405;DHT22;697;51.114;6.542;2023-04-03T06:43:32;4.30;99.70
1405;DHT22;697;51.114;6.542;2023-04-03T06:45:59;4.40;99.70
1405;DHT22;697;51.114;6.542;2023-04-03T06:48:26;4.50;99.70
1405;DHT22;697;51.114;6.542;2023-04-03T06:50:53;4.50;99.70
1405;DHT22;697;51.114;6.542;2023-04-03T06:53:20;4.60;99.70
1405;DHT22;697;51.114;6.542;2023-04-03T06:55:47;4.60;99.70
1405;DHT22;697;51.114;6.542;2023-04-03T06:58:15;4.70;99.80
1405;DHT22;697;51.114;6.542;2023-04-03T07:00:42;4.80;99.90
1405;DHT22;697;51.114;6.542;2023-04-03T07:03:09;4.90;99.70
1405;DHT22;697;51.114;6.542;2023-04-03T07:05:36;5.00;99.70
1405;DHT22;697;51.114;6.542;2023-04-03T07:08:03;5.10;99.50
1405;DHT22;697;51.114;6.542;2023-04-03T07:10:29;5.10;99.30
1405;DHT22;697;51.114;6.542;2023-04-03T07:12:57;5.20;99.00
1405;DHT22;697;51.114;6.542;2023-04-03T07:15:25;5.30;99.00
1405;DHT22;697;51.114;6.542;2023-04-03T07:17:51;5.40;98.90
1405;DHT22;697;51.114;6.542;2023-04-03T07:20:18;5.50;98.90
1405;DHT22;697;51.114;6.542;2023-04-03T07:22:45;5.60;98.80
1405;DHT22;697;51.114;6.542;2023-04-03T07:25:12;5.80;98.50
1405;DHT22;697;51.114;6.542;2023-04-03T07:27:38;5.80;97.90
1405;DHT22;697;51.114;6.542;2023-04-03T07:30:06;6.00;97.70
1405;DHT22;697;51.114;6.542;2023-04-03T07:32:34;6.00;96.90
1405;DHT22;697;51.114;6.542;2023-04-03T07:35:03;6.20;96.20
1405;DHT22;697;51.114;6.542;2023-04-03T07:37:30;6.30;96.10
1405;DHT22;697;51.114;6.542;2023-04-03T07:39:57;6.40;95.90
1405;DHT22;697;51.114;6.542;2023-04-03T07:42:25;6.60;95.30
1405;DHT22;697;51.114;6.542;2023-04-03T07:44:53;6.70;95.10
1405;DHT22;697;51.114;6.542;2023-04-03T07:47:20;6.80;94.60
1405;DHT22;697;51.114;6.542;2023-04-03T07:49:48;7.00;94.20
1405;DHT22;697;51.114;6.542;2023-04-03T07:52:15;7.10;93.30
1405;DHT22;697;51.114;6.542;2023-04-03T07:54:42;7.20;92.60
1405;DHT22;697;51.114;6.542;2023-04-03T07:57:08;7.30;91.80
1405;DHT22;697;51.114;6.542;2023-04-03T07:59:35;7.50;92.00
1405;DHT22;697;51.114;6.542;2023-04-03T08:02:02;7.60;92.10
1405;DHT22;697;51.114;6.542;2023-04-03T08:04:30;7.70;90.70
1405;DHT22;697;51.114;6.542;2023-04-03T08:06:58;7.90;90.00
1405;DHT22;697;51.114;6.542;2023-04-03T08:09:25;8.00;89.30
1405;DHT22;697;51.114;6.542;2023-04-03T08:11:51;8.10;88.60
1405;DHT22;697;51.114;6.542;2023-04-03T08:14:19;8.30;88.40
1405;DHT22;697;51.114;6.542;2023-04-03T08:16:47;8.50;86.80
1405;DHT22;697;51.114;6.542;2023-04-03T08:19:14;8.60;85.40
1405;DHT22;697;51.114;6.542;2023-04-03T08:21:43;8.80;83.40
1405;DHT22;697;51.114;6.542;2023-04-03T08:24:11;8.90;82.50
1405;DHT22;697;51.114;6.542;2023-04-03T08:26:38;9.10;82.00
1405;DHT22;697;51.114;6.542;2023-04-03T08:29:05;9.20;80.40
1405;DHT22;697;51.114;6.542;2023-04-03T08:31:32;9.40;79.00
1405;DHT22;697;51.114;6.542;2023-04-03T08:33:58;9.50;77.60
1405;DHT22;697;51.114;6.542;2023-04-03T08:36:27;9.60;77.10
1405;DHT22;697;51.114;6.542;2023-04-03T08:38:55;9.70;73.20
1405;DHT22;697;51.114;6.542;2023-04-03T08:41:29;9.80;71.70
1405;DHT22;697;51.114;6.542;2023-04-03T08:44:07;10.00;70.70
1405;DHT22;697;51.114;6.542;2023-04-03T08:46:46;10.10;70.00
1405;DHT22;697;51.114;6.542;2023-04-03T08:49:21;10.20;67.30
1405;DHT22;697;51.114;6.542;2023-04-03T08:51:50;10.30;67.50
1405;DHT22;697;51.114;6.542;2023-04-03T08:54:25;10.50;65.70
1405;DHT22;697;51.114;6.542;2023-04-03T08:56:56;10.60;64.60
1405;DHT22;697;51.114;6.542;2023-04-03T08:59:26;10.80;63.40
1405;DHT22;697;51.114;6.542;2023-04-03T09:01:54;11.00;64.20
1405;DHT22;697;51.114;6.542;2023-04-03T09:04:22;11.20;64.20
1405;DHT22;697;51.114;6.542;2023-04-03T09:06:51;11.40;60.80
1405;DHT22;697;51.114;6.542;2023-04-03T09:09:30;11.60;58.00
1405;DHT22;697;51.114;6.542;2023-04-03T09:12:06;11.70;57.10
1405;DHT22;697;51.114;6.542;2023-04-03T09:14:39;11.90;56.70
1405;DHT22;697;51.114;6.542;2023-04-03T09:17:14;12.10;56.00
1405;DHT22;697;51.114;6.542;2023-04-03T09:19:49;12.30;53.40
1405;DHT22;697;51.114;6.542;2023-04-03T09:22:20;12.40;51.40
1405;DHT22;697;51.114;6.542;2023-04-03T09:24:52;12.50;51.40
1405;DHT22;697;51.114;6.542;2023-04-03T09:27:23;12.70;50.30
1405;DHT22;697;51.114;6.542;2023-04-03T09:29:53;12.80;49.20
1405;DHT22;697;51.114;6.542;2023-04-03T09:32:26;12.90;49.00
1405;DHT22;697;51.114;6.542;2023-04-03T09:34:54;13.10;48.90
1405;DHT22;697;51.114;6.542;2023-04-03T09:37:36;13.30;48.10
1405;DHT22;697;51.114;6.542;2023-04-03T09:40:04;13.40;47.40
1405;DHT22;697;51.114;6.542;2023-04-03T09:42:33;13.60;46.60
1405;DHT22;697;51.114;6.542;2023-04-03T09:45:18;13.70;47.50
1405;DHT22;697;51.114;6.542;2023-04-03T09:47:47;13.90;47.50
1405;DHT22;697;51.114;6.542;2023-04-03T09:50:21;14.10;45.10
1405;DHT22;697;51.114;6.542;2023-04-03T09:52:50;14.20;45.40
1405;DHT22;697;51.114;6.542;2023-04-03T09:55:19;14.50;45.10
1405;DHT22;697;51.114;6.542;2023-04-03T09:57:49;14.70;44.60
1405;DHT22;697;51.114;6.542;2023-04-03T10:00:22;15.00;44.70
1405;DHT22;697;51.114;6.542;2023-04-03T10:02:53;15.20;43.80
1405;DHT22;697;51.114;6.542;2023-04-03T10:05:33;15.50;43.80
1405;DHT22;697;51.114;6.542;2023-04-03T10:08:08;15.80;43.70
1405;DHT22;697;51.114;6.542;2023-04-03T10:10:36;16.20;42.80
1405;DHT22;697;51.114;6.542;2023-04-03T10:13:06;16.50;42.10
1405;DHT22;697;51.114;6.542;2023-04-03T10:15:37;16.70;41.00
1405;DHT22;697;51.114;6.542;2023-04-03T10:18:18;16.90;39.60
1405;DHT22;697;51.114;6.542;2023-04-03T10:20:54;17.30;39.30
1405;DHT22;697;51.114;6.542;2023-04-03T10:23:27;17.60;38.40
1405;DHT22;697;51.114;6.542;2023-04-03T10:26:09;18.10;38.00
1405;DHT22;697;51.114;6.542;2023-04-03T10:28:46;18.60;38.30
1405;DHT22;697;51.114;6.542;2023-04-03T10:31:18;19.10;36.70
1405;DHT22;697;51.114;6.542;2023-04-03T10:33:58;19.50;36.40
1405;DHT22;697;51.114;6.542;2023-04-03T10:36:36;19.80;34.00
1405;DHT22;697;51.114;6.542;2023-04-03T10:39:12;20.20;34.60
1405;DHT22;697;51.114;6.542;2023-04-03T10:41:49;20.70;31.30
1405;DHT22;697;51.114;6.542;2023-04-03T10:44:31;21.10;30.30
1405;DHT22;697;51.114;6.542;2023-04-03T10:47:06;21.60;30.00
1405;DHT22;697;51.114;6.542;2023-04-03T10:49:43;22.20;29.10
1405;DHT22;697;51.114;6.542;2023-04-03T10:52:19;22.60;27.80
1405;DHT22;697;51.114;6.542;2023-04-03T10:54:54;23.00;28.00
1405;DHT22;697;51.114;6.542;2023-04-03T10:57:23;23.50;27.00
1405;DHT22;697;51.114;6.542;2023-04-03T10:59:54;23.90;26.00
1405;DHT22;697;51.114;6.542;2023-04-03T11:02:24;24.30;26.00
1405;DHT22;697;51.114;6.542;2023-04-03T11:04:55;24.70;26.20
1405;DHT22;697;51.114;6.542;2023-04-03T11:07:26;24.90;25.10
1405;DHT22;697;51.114;6.542;2023-04-03T11:09:56;25.20;24.90
1405;DHT22;697;51.114;6.542;2023-04-03T11:12:26;25.50;24.20
1405;DHT22;697;51.114;6.542;2023-04-03T11:14:57;25.80;24.30
1405;DHT22;697;51.114;6.542;2023-04-03T11:17:30;26.20;23.70
1405;DHT22;697;51.114;6.542;2023-04-03T11:20:03;26.50;24.40
1405;DHT22;697;51.114;6.542;2023-04-03T11:22:34;26.90;23.40
1405;DHT22;697;51.114;6.542;2023-04-03T11:25:05;27.20;23.10
1405;DHT22;697;51.114;6.542;2023-04-03T11:27:37;27.60;23.00
1405;DHT22;697;51.114;6.542;2023-04-03T11:30:13;28.00;22.30
1405;DHT22;697;51.114;6.542;2023-04-03T11:33:03;28.30;21.80
1405;DHT22;697;51.114;6.542;2023-04-03T11:35:32;28.60;21.70
1405;DHT22;697;51.114;6.542;2023-04-03T11:38:01;28.90;21.70
1405;DHT22;697;51.114;6.542;2023-04-03T11:40:32;29.20;21.50
1405;DHT22;697;51.114;6.542;2023-04-03T11:43:05;29.50;20.80
1405;DHT22;697;51.114;6.542;2023-04-03T11:45:40;29.90;20.50
1405;DHT22;697;51.114;6.542;2023-04-03T11:48:44;30.20;19.90
1405;DHT22;697;51.114;6.542;2023-04-03T11:51:41;30.40;19.30
1405;DHT22;697;51.114;6.542;2023-04-03T11:54:43;30.70;19.60
1405;DHT22;697;51.114;6.542;2023-04-03T11:58:02;31.00;19.30
1405;DHT22;697;51.114;6.542;2023-04-03T12:01:05;31.30;18.70
1405;DHT22;697;51.114;6.542;2023-04-03T12:04:07;31.70;18.20
1405;DHT22;697;51.114;6.542;2023-04-03T12:07:08;31.90;17.60
1405;DHT22;697;51.114;6.542;2023-04-03T12:10:13;32.20;17.80
1405;DHT22;697;51.114;6.542;2023-04-03T12:12:42;32.60;17.40
1405;DHT22;697;51.114;6.542;2023-04-03T12:15:18;32.90;16.90
1405;DHT22;697;51.114;6.542;2023-04-03T12:17:47;32.90;17.80
1405;DHT22;697;51.114;6.542;2023-04-03T12:20:55;33.10;17.30
1405;DHT22;697;51.114;6.542;2023-04-03T12:23:24;33.30;17.10
1405;DHT22;697;51.114;6.542;2023-04-03T12:25:51;33.40;16.60
1405;DHT22;697;51.114;6.542;2023-04-03T12:28:27;33.60;17.00
1405;DHT22;697;51.114;6.542;2023-04-03T12:30:54;34.00;16.20
1405;DHT22;697;51.114;6.542;2023-04-03T12:33:30;34.30;16.00
1405;DHT22;697;51.114;6.542;2023-04-03T12:36:06;34.60;15.70
1405;DHT22;697;51.114;6.542;2023-04-03T12:39:01;34.80;15.20
1405;DHT22;697;51.114;6.542;2023-04-03T12:41:36;35.20;15.50
1405;DHT22;697;51.114;6.542;2023-04-03T12:44:17;35.40;14.90
1405;DHT22;697;51.114;6.542;2023-04-03T12:46:49;35.60;14.90
1405;DHT22;697;51.114;6.542;2023-04-03T12:49:31;35.60;13.80
1405;DHT22;697;51.114;6.542;2023-04-03T12:52:00;35.30;14.00
1405;DHT22;697;51.114;6.542;2023-04-03T12:54:31;35.30;14.70
1405;DHT22;697;51.114;6.542;2023-04-03T12:57:12;35.50;14.60
1405;DHT22;697;51.114;6.542;2023-04-03T12:59:39;35.80;14.90
1405;DHT22;697;51.114;6.542;2023-04-03T13:02:19;36.00;14.40
1405;DHT22;697;51.114;6.542;2023-04-03T13:04:48;36.20;14.10
1405;DHT22;697;51.114;6.542;2023-04-03T13:07:24;36.10;13.60
1405;DHT22;697;51.114;6.542;2023-04-03T13:10:00;36.10;13.80
1405;DHT22;697;51.114;6.542;2023-04-03T13:12:27;36.20;14.00
1405;DHT22;697;51.114;6.542;2023-04-03T13:14:56;36.40;14.10
1405;DHT22;697;51.114;6.542;2023-04-03T13:17:24;36.50;13.20
1405;DHT22;697;51.114;6.542;2023-04-03T13:19:53;36.40;13.10
1405;DHT22;697;51.114;6.542;2023-04-03T13:22:28;36.30;13.10
1405;DHT22;697;51.114;6.542;2023-04-03T13:24:59;36.20;13.30
1405;DHT22;697;51.114;6.542;2023-04-03T13:27:27;36.30;13.30
1405;DHT22;697;51.114;6.542;2023-04-03T13:29:58;36.40;13.50
1405;DHT22;697;51.114;6.542;2023-04-03T13:32:28;36.50;13.60
1405;DHT22;697;51.114;6.542;2023-04-03T13:34:57;36.70;13.30
1405;DHT22;697;51.114;6.542;2023-04-03T13:37:25;37.00;13.20
1405;DHT22;697;51.114;6.542;2023-04-03T13:40:02;37.10;12.30
1405;DHT22;697;51.114;6.542;2023-04-03T13:42:31;37.20;13.00
1405;DHT22;697;51.114;6.542;2023-04-03T13:45:18;37.40;12.70
1405;DHT22;697;51.114;6.542;2023-04-03T13:47:47;37.60;13.10
1405;DHT22;697;51.114;6.542;2023-04-03T13:50:18;37.80;13.10
1405;DHT22;697;51.114;6.542;2023-04-03T13:52:47;37.70;12.20
1405;DHT22;697;51.114;6.542;2023-04-03T13:55:19;37.70;12.70
1405;DHT22;697;51.114;6.542;2023-04-03T13:57:51;37.60;12.50
1405;DHT22;697;51.114;6.542;2023-04-03T14:00:37;37.60;12.00
1405;DHT22;697;51.114;6.542;2023-04-03T14:03:13;37.50;12.20
1405;DHT22;697;51.114;6.542;2023-04-03T14:05:41;37.30;12.00
1405;DHT22;697;51.114;6.542;2023-04-03T14:08:08;37.00;12.80
1405;DHT22;697;51.114;6.542;2023-04-03T14:10:35;37.00;12.50
1405;DHT22;697;51.114;6.542;2023-04-03T14:13:02;36.90;12.60
1405;DHT22;697;51.114;6.542;2023-04-03T14:15:30;36.80;12.80
1405;DHT22;697;51.114;6.542;2023-04-03T14:17:58;36.70;13.10
1405;DHT22;697;51.114;6.542;2023-04-03T14:20:26;36.50;12.90
1405;DHT22;697;51.114;6.542;2023-04-03T14:22:54;36.60;13.00
1405;DHT22;697;51.114;6.542;2023-04-03T14:25:22;36.60;13.40
1405;DHT22;697;51.114;6.542;2023-04-03T14:27:50;36.60;13.10
1405;DHT22;697;51.114;6.542;2023-04-03T14:30:20;36.40;13.00
1405;DHT22;697;51.114;6.542;2023-04-03T14:32:47;36.20;13.30
1405;DHT22;697;51.114;6.542;2023-04-03T14:35:15;36.10;13.90
1405;DHT22;697;51.114;6.542;2023-04-03T14:37:41;36.10;13.50
1405;DHT22;697;51.114;6.542;2023-04-03T14:40:13;36.10;13.50
1405;DHT22;697;51.114;6.542;2023-04-03T14:42:40;36.00;13.60
1405;DHT22;697;51.114;6.542;2023-04-03T14:45:09;35.90;13.30
1405;DHT22;697;51.114;6.542;2023-04-03T14:47:40;35.80;12.80
1405;DHT22;697;51.114;6.542;2023-04-03T14:50:14;35.60;14.00
1405;DHT22;697;51.114;6.542;2023-04-03T14:52:42;35.60;14.00
1405;DHT22;697;51.114;6.542;2023-04-03T14:55:12;35.60;13.70
1405;DHT22;697;51.114;6.542;2023-04-03T14:57:39;35.50;13.60
1405;DHT22;697;51.114;6.542;2023-04-03T15:00:11;35.10;13.50
1405;DHT22;697;51.114;6.542;2023-04-03T15:02:38;34.90;13.80
1405;DHT22;697;51.114;6.542;2023-04-03T15:05:07;34.80;13.70
1405;DHT22;697;51.114;6.542;2023-04-03T15:07:35;34.80;14.80
1405;DHT22;697;51.114;6.542;2023-04-03T15:10:15;34.90;13.90
1405;DHT22;697;51.114;6.542;2023-04-03T15:12:42;34.90;14.20
1405;DHT22;697;51.114;6.542;2023-04-03T15:15:10;34.80;14.30
1405;DHT22;697;51.114;6.542;2023-04-03T15:17:37;34.70;14.40
1405;DHT22;697;51.114;6.542;2023-04-03T15:20:11;34.60;14.30
1405;DHT22;697;51.114;6.542;2023-04-03T15:22:39;34.60;14.50
1405;DHT22;697;51.114;6.542;2023-04-03T15:25:06;34.50;14.50
1405;DHT22;697;51.114;6.542;2023-04-03T15:27:34;34.40;14.20
1405;DHT22;697;51.114;6.542;2023-04-03T15:30:02;34.20;14.50
1405;DHT22;697;51.114;6.542;2023-04-03T15:32:29;34.00;14.50
1405;DHT22;697;51.114;6.542;2023-04-03T15:34:56;33.80;14.50
1405;DHT22;697;51.114;6.542;2023-04-03T15:37:23;33.40;14.90
1405;DHT22;697;51.114;6.542;2023-04-03T15:39:49;33.10;15.60
1405;DHT22;697;51.114;6.542;2023-04-03T15:42:16;32.90;15.00
1405;DHT22;697;51.114;6.542;2023-04-03T15:44:44;32.60;15.10
1405;DHT22;697;51.114;6.542;2023-04-03T15:47:11;32.20;15.20
1405;DHT22;697;51.114;6.542;2023-04-03T15:49:38;31.90;16.40
1405;DHT22;697;51.114;6.542;2023-04-03T15:52:05;31.50;16.90
1405;DHT22;697;51.114;6.542;2023-04-03T15:54:32;31.00;16.60
1405;DHT22;697;51.114;6.542;2023-04-03T15:56:58;30.70;17.10
1405;DHT22;697;51.114;6.542;2023-04-03T15:59:25;30.50;17.40
1405;DHT22;697;51.114;6.542;2023-04-03T16:01:55;30.20;16.60
1405;DHT22;697;51.114;6.542;2023-04-03T16:04:22;29.80;16.80
1405;DHT22;697;51.114;6.542;2023-04-03T16:06:49;29.20;18.60
1405;DHT22;697;51.114;6.542;2023-04-03T16:09:16;29.00;17.50
1405;DHT22;697;51.114;6.542;2023-04-03T16:11:43;28.60;19.00
1405;DHT22;697;51.114;6.542;2023-04-03T16:14:10;28.30;18.90
1405;DHT22;697;51.114;6.542;2023-04-03T16:16:37;28.10;19.40
1405;DHT22;697;51.114;6.542;2023-04-03T16:19:06;27.80;19.40
1405;DHT22;697;51.114;6.542;2023-04-03T16:21:33;27.60;19.70
1405;DHT22;697;51.114;6.542;2023-04-03T16:24:00;27.30;19.40
1405;DHT22;697;51.114;6.542;2023-04-03T16:26:27;26.70;18.80
1405;DHT22;697;51.114;6.542;2023-04-03T16:28:54;26.10;19.60
1405;DHT22;697;51.114;6.542;2023-04-03T16:31:21;26.00;21.10
1405;DHT22;697;51.114;6.542;2023-04-03T16:33:49;25.80;20.70
1405;DHT22;697;51.114;6.542;2023-04-03T16:36:17;25.50;20.70
1405;DHT22;697;51.114;6.542;2023-04-03T16:38:44;25.20;21.40
1405;DHT22;697;51.114;6.542;2023-04-03T16:41:10;24.90;21.30
1405;DHT22;697;51.114;6.542;2023-04-03T16:43:37;24.70;21.40